sensor_id;sensor_type;location;lat;lon;timestamp;P1;durP1;ratioP1;P2;durP2;ratioP2
7171;SDS011;3627;46.544;14.944;2023-03-31T00:00:44;8.02;;;4.95;;
7171;SDS011;3627;46.544;14.944;2023-03-31T00:03:11;7.07;;;4.63;;
7171;SDS011;3627;46.544;14.944;2023-03-31T00:05:45;7.15;;;5.18;;
7171;SDS011;3627;46.544;14.944;2023-03-31T00:08:13;8.20;;;5.55;;
7171;SDS011;3627;46.544;14.944;2023-03-31T00:10:43;8.52;;;5.53;;
7171;SDS011;3627;46.544;14.944;2023-03-31T00:13:10;7.03;;;5.20;;
7171;SDS011;3627;46.544;14.944;2023-03-31T00:15:38;6.78;;;5.13;;
7171;SDS011;3627;46.544;14.944;2023-03-31T00:18:04;9.60;;;5.82;;
7171;SDS011;3627;46.544;14.944;2023-03-31T00:20:31;7.05;;;5.35;;
7171;SDS011;3627;46.544;14.944;2023-03-31T00:23:02;6.85;;;5.20;;
7171;SDS011;3627;46.544;14.944;2023-03-31T00:25:34;6.55;;;5.50;;
7171;SDS011;3627;46.544;14.944;2023-03-31T00:28:00;9.18;;;5.75;;
7171;SDS011;3627;46.544;14.944;2023-03-31T00:30:27;6.65;;;5.25;;
7171;SDS011;3627;46.544;14.944;2023-03-31T00:32:54;11.13;;;6.93;;
7171;SDS011;3627;46.544;14.944;2023-03-31T00:35:21;8.23;;;6.40;;
7171;SDS011;3627;46.544;14.944;2023-03-31T00:40:13;10.32;;;8.18;;
7171;SDS011;3627;46.544;14.944;2023-03-31T00:42:40;9.88;;;8.88;;
7171;SDS011;3627;46.544;14.944;2023-03-31T00:45:20;7.72;;;6.30;;
7171;SDS011;3627;46.544;14.944;2023-03-31T00:47:47;7.95;;;6.50;;
7171;SDS011;3627;46.544;14.944;2023-03-31T00:50:18;6.10;;;5.50;;
7171;SDS011;3627;46.544;14.944;2023-03-31T00:52:45;7.28;;;5.75;;
7171;SDS011;3627;46.544;14.944;2023-03-31T00:55:13;9.20;;;5.68;;
7171;SDS011;3627;46.544;14.944;2023-03-31T00:57:41;10.15;;;5.93;;
7171;SDS011;3627;46.544;14.944;2023-03-31T01:00:10;7.15;;;5.40;;
7171;SDS011;3627;46.544;14.944;2023-03-31T01:02:38;7.88;;;5.45;;
7171;SDS011;3627;46.544;14.944;2023-03-31T01:05:05;7.40;;;5.65;;
7171;SDS011;3627;46.544;14.944;2023-03-31T01:07:36;8.18;;;4.93;;
7171;SDS011;3627;46.544;14.944;2023-03-31T01:10:05;5.65;;;5.07;;
7171;SDS011;3627;46.544;14.944;2023-03-31T01:12:33;7.88;;;5.53;;
7171;SDS011;3627;46.544;14.944;2023-03-31T01:15:02;6.80;;;5.10;;
7171;SDS011;3627;46.544;14.944;2023-03-31T01:17:28;8.20;;;5.85;;
7171;SDS011;3627;46.544;14.944;2023-03-31T01:19:58;7.38;;;4.80;;
7171;SDS011;3627;46.544;14.944;2023-03-31T01:22:50;5.47;;;4.65;;
7171;SDS011;3627;46.544;14.944;2023-03-31T01:25:29;7.22;;;4.28;;
7171;SDS011;3627;46.544;14.944;2023-03-31T01:28:07;5.80;;;4.00;;
7171;SDS011;3627;46.544;14.944;2023-03-31T01:30:46;6.32;;;4.00;;
7171;SDS011;3627;46.544;14.944;2023-03-31T01:36:15;5.68;;;3.65;;
7171;SDS011;3627;46.544;14.944;2023-03-31T01:38:52;5.55;;;3.65;;
7171;SDS011;3627;46.544;14.944;2023-03-31T01:41:35;8.05;;;3.70;;
7171;SDS011;3627;46.544;14.944;2023-03-31T01:44:05;4.00;;;3.65;;
7171;SDS011;3627;46.544;14.944;2023-03-31T01:46:34;5.00;;;3.55;;
7171;SDS011;3627;46.544;14.944;2023-03-31T01:49:04;5.35;;;3.88;;
7171;SDS011;3627;46.544;14.944;2023-03-31T01:51:33;4.15;;;3.75;;
7171;SDS011;3627;46.544;14.944;2023-03-31T01:54:02;6.00;;;3.80;;
7171;SDS011;3627;46.544;14.944;2023-03-31T01:56:31;3.88;;;3.47;;
7171;SDS011;3627;46.544;14.944;2023-03-31T01:58:59;4.65;;;3.58;;
7171;SDS011;3627;46.544;14.944;2023-03-31T02:01:28;6.97;;;3.78;;
7171;SDS011;3627;46.544;14.944;2023-03-31T02:03:57;6.15;;;3.40;;
7171;SDS011;3627;46.544;14.944;2023-03-31T02:06:24;3.72;;;3.13;;
7171;SDS011;3627;46.544;14.944;2023-03-31T02:08:53;7.88;;;3.78;;
7171;SDS011;3627;46.544;14.944;2023-03-31T02:11:20;4.25;;;3.50;;
7171;SDS011;3627;46.544;14.944;2023-03-31T02:13:47;6.30;;;3.45;;
7171;SDS011;3627;46.544;14.944;2023-03-31T02:16:17;6.32;;;3.60;;
7171;SDS011;3627;46.544;14.944;2023-03-31T02:18:48;4.57;;;4.00;;
7171;SDS011;3627;46.544;14.944;2023-03-31T02:21:17;7.43;;;3.63;;
7171;SDS011;3627;46.544;14.944;2023-03-31T02:23:44;5.03;;;3.53;;
7171;SDS011;3627;46.544;14.944;2023-03-31T02:26:13;3.90;;;3.55;;
7171;SDS011;3627;46.544;14.944;2023-03-31T02:28:41;3.88;;;3.47;;
7171;SDS011;3627;46.544;14.944;2023-03-31T02:31:11;4.78;;;3.72;;
7171;SDS011;3627;46.544;14.944;2023-03-31T02:33:42;5.85;;;3.72;;
7171;SDS011;3627;46.544;14.944;2023-03-31T02:36:08;3.50;;;3.20;;
7171;SDS011;3627;46.544;14.944;2023-03-31T02:38:35;3.70;;;3.40;;
7171;SDS011;3627;46.544;14.944;2023-03-31T02:41:03;5.05;;;4.20;;
7171;SDS011;3627;46.544;14.944;2023-03-31T02:43:30;7.10;;;3.97;;
7171;SDS011;3627;46.544;14.944;2023-03-31T02:45:56;4.82;;;3.63;;
7171;SDS011;3627;46.544;14.944;2023-03-31T02:48:23;5.53;;;5.03;;
7171;SDS011;3627;46.544;14.944;2023-03-31T02:51:15;3.63;;;3.33;;
7171;SDS011;3627;46.544;14.944;2023-03-31T02:53:47;4.15;;;3.72;;
7171;SDS011;3627;46.544;14.944;2023-03-31T02:56:25;5.47;;;3.47;;
7171;SDS011;3627;46.544;14.944;2023-03-31T02:58:58;3.97;;;3.53;;
7171;SDS011;3627;46.544;14.944;2023-03-31T03:01:35;6.63;;;3.78;;
7171;SDS011;3627;46.544;14.944;2023-03-31T03:04:04;4.03;;;3.63;;
7171;SDS011;3627;46.544;14.944;2023-03-31T03:06:37;5.95;;;3.70;;
7171;SDS011;3627;46.544;14.944;2023-03-31T03:09:12;3.97;;;3.55;;
7171;SDS011;3627;46.544;14.944;2023-03-31T03:11:44;4.88;;;3.78;;
7171;SDS011;3627;46.544;14.944;2023-03-31T03:14:13;4.80;;;3.65;;
7171;SDS011;3627;46.544;14.944;2023-03-31T03:16:42;5.80;;;4.15;;
7171;SDS011;3627;46.544;14.944;2023-03-31T03:19:16;3.90;;;3.60;;
7171;SDS011;3627;46.544;14.944;2023-03-31T03:21:44;4.68;;;3.63;;
7171;SDS011;3627;46.544;14.944;2023-03-31T03:24:11;4.55;;;4.15;;
7171;SDS011;3627;46.544;14.944;2023-03-31T03:26:38;4.57;;;4.15;;
7171;SDS011;3627;46.544;14.944;2023-03-31T03:29:04;4.47;;;3.88;;
7171;SDS011;3627;46.544;14.944;2023-03-31T03:31:30;4.03;;;3.55;;
7171;SDS011;3627;46.544;14.944;2023-03-31T03:33:57;4.80;;;3.83;;
7171;SDS011;3627;46.544;14.944;2023-03-31T03:36:24;4.43;;;3.63;;
7171;SDS011;3627;46.544;14.944;2023-03-31T03:38:52;5.47;;;3.78;;
7171;SDS011;3627;46.544;14.944;2023-03-31T03:41:18;7.72;;;5.57;;
7171;SDS011;3627;46.544;14.944;2023-03-31T03:43:45;5.00;;;3.83;;
7171;SDS011;3627;46.544;14.944;2023-03-31T03:46:11;4.30;;;3.50;;
7171;SDS011;3627;46.544;14.944;2023-03-31T03:48:37;4.53;;;3.42;;
7171;SDS011;3627;46.544;14.944;2023-03-31T03:51:04;5.60;;;3.80;;
7171;SDS011;3627;46.544;14.944;2023-03-31T03:53:31;6.45;;;4.45;;
7171;SDS011;3627;46.544;14.944;2023-03-31T03:55:59;7.57;;;4.05;;
7171;SDS011;3627;46.544;14.944;2023-03-31T03:58:25;6.80;;;5.13;;
7171;SDS011;3627;46.544;14.944;2023-03-31T04:00:51;5.80;;;5.20;;
7171;SDS011;3627;46.544;14.944;2023-03-31T04:03:18;7.47;;;5.17;;
7171;SDS011;3627;46.544;14.944;2023-03-31T04:05:45;7.68;;;6.60;;
7171;SDS011;3627;46.544;14.944;2023-03-31T04:08:13;9.27;;;6.03;;
7171;SDS011;3627;46.544;14.944;2023-03-31T04:10:42;5.22;;;4.72;;
7171;SDS011;3627;46.544;14.944;2023-03-31T04:13:10;7.65;;;4.75;;
7171;SDS011;3627;46.544;14.944;2023-03-31T04:15:37;5.72;;;4.25;;
7171;SDS011;3627;46.544;14.944;2023-03-31T04:18:03;4.37;;;4.03;;
7171;SDS011;3627;46.544;14.944;2023-03-31T04:20:30;5.95;;;3.53;;
7171;SDS011;3627;46.544;14.944;2023-03-31T04:22:56;3.95;;;3.55;;
7171;SDS011;3627;46.544;14.944;2023-03-31T04:25:22;4.97;;;3.60;;
7171;SDS011;3627;46.544;14.944;2023-03-31T04:27:49;7.80;;;5.97;;
7171;SDS011;3627;46.544;14.944;2023-03-31T04:30:20;8.40;;;6.38;;
7171;SDS011;3627;46.544;14.944;2023-03-31T04:32:48;13.45;;;6.80;;
7171;SDS011;3627;46.544;14.944;2023-03-31T04:35:15;11.13;;;6.05;;
7171;SDS011;3627;46.544;14.944;2023-03-31T04:37:42;11.93;;;8.48;;
7171;SDS011;3627;46.544;14.944;2023-03-31T04:40:08;9.27;;;7.00;;
7171;SDS011;3627;46.544;14.944;2023-03-31T04:42:35;10.23;;;7.05;;
7171;SDS011;3627;46.544;14.944;2023-03-31T04:45:01;12.48;;;7.13;;
7171;SDS011;3627;46.544;14.944;2023-03-31T04:47:29;5.13;;;4.63;;
7171;SDS011;3627;46.544;14.944;2023-03-31T04:49:56;4.85;;;4.38;;
7171;SDS011;3627;46.544;14.944;2023-03-31T04:52:22;7.05;;;4.13;;
7171;SDS011;3627;46.544;14.944;2023-03-31T04:54:48;5.43;;;4.30;;
7171;SDS011;3627;46.544;14.944;2023-03-31T04:57:15;4.53;;;4.13;;
7171;SDS011;3627;46.544;14.944;2023-03-31T04:59:41;5.32;;;4.78;;
7171;SDS011;3627;46.544;14.944;2023-03-31T05:02:07;9.20;;;6.95;;
7171;SDS011;3627;46.544;14.944;2023-03-31T05:04:35;13.18;;;7.38;;
7171;SDS011;3627;46.544;14.944;2023-03-31T05:07:01;13.52;;;6.00;;
7171;SDS011;3627;46.544;14.944;2023-03-31T05:09:29;9.23;;;6.95;;
7171;SDS011;3627;46.544;14.944;2023-03-31T05:11:55;8.18;;;5.68;;
7171;SDS011;3627;46.544;14.944;2023-03-31T05:14:21;5.85;;;4.43;;
7171;SDS011;3627;46.544;14.944;2023-03-31T05:16:48;4.03;;;3.47;;
7171;SDS011;3627;46.544;14.944;2023-03-31T05:19:14;4.88;;;3.65;;
7171;SDS011;3627;46.544;14.944;2023-03-31T05:21:43;5.47;;;4.95;;
7171;SDS011;3627;46.544;14.944;2023-03-31T05:24:10;5.10;;;4.57;;
7171;SDS011;3627;46.544;14.944;2023-03-31T05:26:37;5.38;;;4.00;;
7171;SDS011;3627;46.544;14.944;2023-03-31T05:29:05;14.30;;;10.75;;
7171;SDS011;3627;46.544;14.944;2023-03-31T05:31:31;10.23;;;6.88;;
7171;SDS011;3627;46.544;14.944;2023-03-31T05:33:57;9.85;;;5.90;;
7171;SDS011;3627;46.544;14.944;2023-03-31T05:36:24;11.23;;;6.47;;
7171;SDS011;3627;46.544;14.944;2023-03-31T05:38:52;10.15;;;4.65;;
7171;SDS011;3627;46.544;14.944;2023-03-31T05:41:18;9.43;;;5.10;;
7171;SDS011;3627;46.544;14.944;2023-03-31T05:43:45;6.97;;;5.63;;
7171;SDS011;3627;46.544;14.944;2023-03-31T05:46:11;5.30;;;4.80;;
7171;SDS011;3627;46.544;14.944;2023-03-31T05:48:37;5.35;;;4.85;;
7171;SDS011;3627;46.544;14.944;2023-03-31T05:51:04;5.90;;;4.75;;
7171;SDS011;3627;46.544;14.944;2023-03-31T05:53:30;9.82;;;7.07;;
7171;SDS011;3627;46.544;14.944;2023-03-31T05:55:59;12.30;;;7.82;;
7171;SDS011;3627;46.544;14.944;2023-03-31T05:58:27;17.23;;;9.77;;
7171;SDS011;3627;46.544;14.944;2023-03-31T06:01:00;17.75;;;9.45;;
7171;SDS011;3627;46.544;14.944;2023-03-31T06:03:29;17.52;;;8.00;;
7171;SDS011;3627;46.544;14.944;2023-03-31T06:05:56;16.00;;;8.23;;
7171;SDS011;3627;46.544;14.944;2023-03-31T06:08:22;13.30;;;7.93;;
7171;SDS011;3627;46.544;14.944;2023-03-31T06:10:49;12.45;;;8.63;;
7171;SDS011;3627;46.544;14.944;2023-03-31T06:13:16;11.07;;;7.38;;
7171;SDS011;3627;46.544;14.944;2023-03-31T06:15:51;12.48;;;7.45;;
7171;SDS011;3627;46.544;14.944;2023-03-31T06:18:17;11.40;;;7.25;;
7171;SDS011;3627;46.544;14.944;2023-03-31T06:20:44;13.38;;;7.18;;
7171;SDS011;3627;46.544;14.944;2023-03-31T06:23:10;15.52;;;6.78;;
7171;SDS011;3627;46.544;14.944;2023-03-31T06:25:36;11.60;;;6.13;;
7171;SDS011;3627;46.544;14.944;2023-03-31T06:28:03;9.93;;;5.35;;
7171;SDS011;3627;46.544;14.944;2023-03-31T06:30:31;4.90;;;4.38;;
7171;SDS011;3627;46.544;14.944;2023-03-31T06:32:58;6.85;;;5.10;;
7171;SDS011;3627;46.544;14.944;2023-03-31T06:37:50;11.02;;;5.38;;
7171;SDS011;3627;46.544;14.944;2023-03-31T06:40:17;9.73;;;5.07;;
7171;SDS011;3627;46.544;14.944;2023-03-31T06:42:43;10.93;;;5.40;;
7171;SDS011;3627;46.544;14.944;2023-03-31T06:45:10;9.93;;;4.57;;
7171;SDS011;3627;46.544;14.944;2023-03-31T06:47:37;6.05;;;4.60;;
7171;SDS011;3627;46.544;14.944;2023-03-31T06:50:06;8.20;;;4.43;;
7171;SDS011;3627;46.544;14.944;2023-03-31T06:52:33;7.22;;;4.88;;
7171;SDS011;3627;46.544;14.944;2023-03-31T06:54:59;10.98;;;4.85;;
7171;SDS011;3627;46.544;14.944;2023-03-31T06:57:26;9.05;;;4.68;;
7171;SDS011;3627;46.544;14.944;2023-03-31T06:59:52;6.57;;;4.03;;
7171;SDS011;3627;46.544;14.944;2023-03-31T07:02:19;15.38;;;4.00;;
7171;SDS011;3627;46.544;14.944;2023-03-31T07:04:47;5.20;;;3.70;;
7171;SDS011;3627;46.544;14.944;2023-03-31T07:07:13;6.40;;;3.35;;
7171;SDS011;3627;46.544;14.944;2023-03-31T07:09:40;6.78;;;3.15;;
7171;SDS011;3627;46.544;14.944;2023-03-31T07:12:07;5.97;;;3.40;;
7171;SDS011;3627;46.544;14.944;2023-03-31T07:14:34;6.78;;;3.70;;
7171;SDS011;3627;46.544;14.944;2023-03-31T07:17:01;5.45;;;3.60;;
7171;SDS011;3627;46.544;14.944;2023-03-31T07:19:27;5.32;;;3.00;;
7171;SDS011;3627;46.544;14.944;2023-03-31T07:21:55;6.00;;;3.03;;
7171;SDS011;3627;46.544;14.944;2023-03-31T07:24:21;9.38;;;3.40;;
7171;SDS011;3627;46.544;14.944;2023-03-31T07:26:48;7.15;;;2.88;;
7171;SDS011;3627;46.544;14.944;2023-03-31T07:29:14;4.45;;;2.58;;
7171;SDS011;3627;46.544;14.944;2023-03-31T07:31:41;4.22;;;3.08;;
7171;SDS011;3627;46.544;14.944;2023-03-31T07:34:07;4.68;;;2.45;;
7171;SDS011;3627;46.544;14.944;2023-03-31T07:36:33;2.42;;;2.17;;
7171;SDS011;3627;46.544;14.944;2023-03-31T07:39:04;2.72;;;2.17;;
7171;SDS011;3627;46.544;14.944;2023-03-31T07:41:30;2.72;;;1.92;;
7171;SDS011;3627;46.544;14.944;2023-03-31T07:43:57;2.40;;;2.20;;
7171;SDS011;3627;46.544;14.944;2023-03-31T07:46:24;4.22;;;2.40;;
7171;SDS011;3627;46.544;14.944;2023-03-31T07:48:51;3.67;;;2.30;;
7171;SDS011;3627;46.544;14.944;2023-03-31T07:51:19;3.85;;;2.10;;
7171;SDS011;3627;46.544;14.944;2023-03-31T07:53:46;3.88;;;2.30;;
7171;SDS011;3627;46.544;14.944;2023-03-31T07:56:14;3.25;;;2.22;;
7171;SDS011;3627;46.544;14.944;2023-03-31T07:58:41;2.60;;;2.25;;
7171;SDS011;3627;46.544;14.944;2023-03-31T08:01:08;2.33;;;2.10;;
7171;SDS011;3627;46.544;14.944;2023-03-31T08:03:36;5.38;;;1.75;;
7171;SDS011;3627;46.544;14.944;2023-03-31T08:06:02;2.63;;;1.95;;
7171;SDS011;3627;46.544;14.944;2023-03-31T08:08:29;3.08;;;2.00;;
7171;SDS011;3627;46.544;14.944;2023-03-31T08:10:55;4.28;;;2.17;;
7171;SDS011;3627;46.544;14.944;2023-03-31T08:13:23;2.20;;;1.90;;
7171;SDS011;3627;46.544;14.944;2023-03-31T08:15:50;1.88;;;1.77;;
7171;SDS011;3627;46.544;14.944;2023-03-31T08:18:16;3.08;;;2.05;;
7171;SDS011;3627;46.544;14.944;2023-03-31T08:20:42;2.55;;;1.92;;
7171;SDS011;3627;46.544;14.944;2023-03-31T08:23:09;2.28;;;2.00;;
7171;SDS011;3627;46.544;14.944;2023-03-31T08:25:36;4.40;;;2.05;;
7171;SDS011;3627;46.544;14.944;2023-03-31T08:28:02;2.00;;;1.70;;
7171;SDS011;3627;46.544;14.944;2023-03-31T08:30:30;2.17;;;1.45;;
7171;SDS011;3627;46.544;14.944;2023-03-31T08:32:56;1.95;;;1.70;;
7171;SDS011;3627;46.544;14.944;2023-03-31T08:35:23;1.75;;;1.65;;
7171;SDS011;3627;46.544;14.944;2023-03-31T08:37:49;1.70;;;1.60;;
7171;SDS011;3627;46.544;14.944;2023-03-31T08:40:17;1.63;;;1.50;;
7171;SDS011;3627;46.544;14.944;2023-03-31T08:42:45;6.10;;;1.90;;
7171;SDS011;3627;46.544;14.944;2023-03-31T08:45:14;2.38;;;1.67;;
7171;SDS011;3627;46.544;14.944;2023-03-31T08:47:43;1.67;;;1.58;;
7171;SDS011;3627;46.544;14.944;2023-03-31T08:50:12;2.50;;;1.70;;
7171;SDS011;3627;46.544;14.944;2023-03-31T08:52:40;2.38;;;1.88;;
7171;SDS011;3627;46.544;14.944;2023-03-31T08:55:10;4.88;;;2.22;;
7171;SDS011;3627;46.544;14.944;2023-03-31T08:57:39;2.03;;;1.63;;
7171;SDS011;3627;46.544;14.944;2023-03-31T09:00:12;2.35;;;1.52;;
7171;SDS011;3627;46.544;14.944;2023-03-31T09:02:41;2.13;;;1.55;;
7171;SDS011;3627;46.544;14.944;2023-03-31T09:08:14;3.10;;;1.73;;
7171;SDS011;3627;46.544;14.944;2023-03-31T09:10:47;2.13;;;1.80;;
7171;SDS011;3627;46.544;14.944;2023-03-31T09:16:12;2.33;;;1.75;;
7171;SDS011;3627;46.544;14.944;2023-03-31T09:18:39;2.65;;;1.95;;
7171;SDS011;3627;46.544;14.944;2023-03-31T09:21:11;3.80;;;1.73;;
7171;SDS011;3627;46.544;14.944;2023-03-31T09:23:42;1.92;;;1.80;;
7171;SDS011;3627;46.544;14.944;2023-03-31T09:26:10;2.33;;;1.77;;
7171;SDS011;3627;46.544;14.944;2023-03-31T09:28:38;1.60;;;1.50;;
7171;SDS011;3627;46.544;14.944;2023-03-31T09:31:07;2.67;;;1.98;;
7171;SDS011;3627;46.544;14.944;2023-03-31T09:33:33;2.25;;;1.90;;
7171;SDS011;3627;46.544;14.944;2023-03-31T09:36:04;3.30;;;1.90;;
7171;SDS011;3627;46.544;14.944;2023-03-31T09:38:33;2.80;;;2.08;;
7171;SDS011;3627;46.544;14.944;2023-03-31T09:41:02;2.47;;;2.10;;
7171;SDS011;3627;46.544;14.944;2023-03-31T09:43:30;2.20;;;1.95;;
7171;SDS011;3627;46.544;14.944;2023-03-31T09:45:59;4.75;;;2.92;;
7171;SDS011;3627;46.544;14.944;2023-03-31T09:48:26;5.63;;;1.77;;
7171;SDS011;3627;46.544;14.944;2023-03-31T09:50:54;3.65;;;2.33;;
7171;SDS011;3627;46.544;14.944;2023-03-31T09:53:24;2.75;;;2.20;;
7171;SDS011;3627;46.544;14.944;2023-03-31T09:55:53;3.03;;;2.13;;
7171;SDS011;3627;46.544;14.944;2023-03-31T09:58:22;5.28;;;2.38;;
7171;SDS011;3627;46.544;14.944;2023-03-31T10:00:56;2.92;;;1.90;;
7171;SDS011;3627;46.544;14.944;2023-03-31T10:03:23;2.65;;;2.30;;
7171;SDS011;3627;46.544;14.944;2023-03-31T10:05:53;2.65;;;2.08;;
7171;SDS011;3627;46.544;14.944;2023-03-31T10:08:21;6.82;;;3.03;;
7171;SDS011;3627;46.544;14.944;2023-03-31T10:10:49;4.68;;;2.50;;
7171;SDS011;3627;46.544;14.944;2023-03-31T10:13:16;5.28;;;2.65;;
7171;SDS011;3627;46.544;14.944;2023-03-31T10:15:45;2.80;;;2.50;;
7171;SDS011;3627;46.544;14.944;2023-03-31T10:18:12;3.40;;;2.70;;
7171;SDS011;3627;46.544;14.944;2023-03-31T10:20:42;4.95;;;3.00;;
7171;SDS011;3627;46.544;14.944;2023-03-31T10:23:14;3.92;;;2.80;;
7171;SDS011;3627;46.544;14.944;2023-03-31T10:25:41;3.30;;;2.72;;
7171;SDS011;3627;46.544;14.944;2023-03-31T10:28:09;5.32;;;3.03;;
7171;SDS011;3627;46.544;14.944;2023-03-31T10:30:36;3.67;;;2.80;;
7171;SDS011;3627;46.544;14.944;2023-03-31T10:33:06;3.55;;;2.30;;
7171;SDS011;3627;46.544;14.944;2023-03-31T10:35:36;6.93;;;2.60;;
7171;SDS011;3627;46.544;14.944;2023-03-31T10:38:03;5.03;;;2.65;;
7171;SDS011;3627;46.544;14.944;2023-03-31T10:40:31;4.30;;;2.78;;
7171;SDS011;3627;46.544;14.944;2023-03-31T10:42:58;4.97;;;3.35;;
7171;SDS011;3627;46.544;14.944;2023-03-31T10:45:27;3.47;;;3.03;;
7171;SDS011;3627;46.544;14.944;2023-03-31T10:47:54;5.13;;;3.17;;
7171;SDS011;3627;46.544;14.944;2023-03-31T10:50:26;5.18;;;2.97;;
7171;SDS011;3627;46.544;14.944;2023-03-31T10:52:54;5.22;;;2.67;;
7171;SDS011;3627;46.544;14.944;2023-03-31T10:55:28;4.60;;;2.85;;
7171;SDS011;3627;46.544;14.944;2023-03-31T10:57:58;6.82;;;3.10;;
7171;SDS011;3627;46.544;14.944;2023-03-31T11:00:27;3.03;;;2.50;;
7171;SDS011;3627;46.544;14.944;2023-03-31T11:03:00;3.10;;;2.60;;
7171;SDS011;3627;46.544;14.944;2023-03-31T11:05:31;5.70;;;2.80;;
7171;SDS011;3627;46.544;14.944;2023-03-31T11:08:02;4.13;;;2.78;;
7171;SDS011;3627;46.544;14.944;2023-03-31T11:10:36;5.07;;;2.97;;
7171;SDS011;3627;46.544;14.944;2023-03-31T11:13:05;5.50;;;3.22;;
7171;SDS011;3627;46.544;14.944;2023-03-31T11:15:34;6.10;;;3.38;;
7171;SDS011;3627;46.544;14.944;2023-03-31T11:18:05;3.63;;;2.78;;
7171;SDS011;3627;46.544;14.944;2023-03-31T11:20:39;4.80;;;2.63;;
7171;SDS011;3627;46.544;14.944;2023-03-31T11:23:09;3.38;;;2.85;;
7171;SDS011;3627;46.544;14.944;2023-03-31T11:25:37;4.53;;;3.00;;
7171;SDS011;3627;46.544;14.944;2023-03-31T11:28:20;3.53;;;2.70;;
7171;SDS011;3627;46.544;14.944;2023-03-31T11:30:50;4.22;;;2.83;;
7171;SDS011;3627;46.544;14.944;2023-03-31T11:33:33;3.15;;;2.67;;
7171;SDS011;3627;46.544;14.944;2023-03-31T11:36:08;4.32;;;3.30;;
7171;SDS011;3627;46.544;14.944;2023-03-31T11:38:45;3.38;;;2.88;;
7171;SDS011;3627;46.544;14.944;2023-03-31T11:41:15;4.32;;;2.80;;
7171;SDS011;3627;46.544;14.944;2023-03-31T11:43:44;3.92;;;2.78;;
7171;SDS011;3627;46.544;14.944;2023-03-31T11:46:13;7.55;;;2.75;;
7171;SDS011;3627;46.544;14.944;2023-03-31T11:48:41;4.22;;;2.60;;
7171;SDS011;3627;46.544;14.944;2023-03-31T11:51:12;2.50;;;2.30;;
7171;SDS011;3627;46.544;14.944;2023-03-31T11:53:39;3.03;;;2.25;;
7171;SDS011;3627;46.544;14.944;2023-03-31T11:56:07;2.63;;;2.17;;
7171;SDS011;3627;46.544;14.944;2023-03-31T11:58:35;4.20;;;2.00;;
7171;SDS011;3627;46.544;14.944;2023-03-31T12:01:05;5.80;;;2.95;;
7171;SDS011;3627;46.544;14.944;2023-03-31T12:03:36;14.23;;;5.38;;
7171;SDS011;3627;46.544;14.944;2023-03-31T12:06:05;7.45;;;3.08;;
7171;SDS011;3627;46.544;14.944;2023-03-31T12:08:38;4.28;;;3.05;;
7171;SDS011;3627;46.544;14.944;2023-03-31T12:11:07;3.83;;;2.30;;
7171;SDS011;3627;46.544;14.944;2023-03-31T12:13:39;4.00;;;2.38;;
7171;SDS011;3627;46.544;14.944;2023-03-31T12:16:08;5.55;;;2.63;;
7171;SDS011;3627;46.544;14.944;2023-03-31T12:18:37;3.60;;;2.30;;
7171;SDS011;3627;46.544;14.944;2023-03-31T12:21:05;6.22;;;2.70;;
7171;SDS011;3627;46.544;14.944;2023-03-31T12:23:34;4.07;;;2.20;;
7171;SDS011;3627;46.544;14.944;2023-03-31T12:26:04;3.30;;;2.50;;
7171;SDS011;3627;46.544;14.944;2023-03-31T12:28:32;6.30;;;2.97;;
7171;SDS011;3627;46.544;14.944;2023-03-31T12:31:01;4.43;;;2.92;;
7171;SDS011;3627;46.544;14.944;2023-03-31T12:33:29;8.57;;;4.47;;
7171;SDS011;3627;46.544;14.944;2023-03-31T12:36:04;7.50;;;4.53;;
7171;SDS011;3627;46.544;14.944;2023-03-31T12:38:35;3.97;;;2.95;;
7171;SDS011;3627;46.544;14.944;2023-03-31T12:41:07;5.13;;;2.63;;
7171;SDS011;3627;46.544;14.944;2023-03-31T12:43:41;4.32;;;2.70;;
7171;SDS011;3627;46.544;14.944;2023-03-31T12:46:20;9.13;;;3.10;;
7171;SDS011;3627;46.544;14.944;2023-03-31T12:48:55;4.18;;;2.75;;
7171;SDS011;3627;46.544;14.944;2023-03-31T12:51:30;5.85;;;2.78;;
7171;SDS011;3627;46.544;14.944;2023-03-31T12:54:03;5.82;;;2.60;;
7171;SDS011;3627;46.544;14.944;2023-03-31T12:59:23;2.67;;;2.38;;
7171;SDS011;3627;46.544;14.944;2023-03-31T13:04:39;4.85;;;2.40;;
7171;SDS011;3627;46.544;14.944;2023-03-31T13:07:07;3.00;;;2.70;;
7171;SDS011;3627;46.544;14.944;2023-03-31T13:09:41;3.72;;;2.40;;
7171;SDS011;3627;46.544;14.944;2023-03-31T13:12:08;3.33;;;2.05;;
7171;SDS011;3627;46.544;14.944;2023-03-31T13:14:39;5.05;;;2.28;;
7171;SDS011;3627;46.544;14.944;2023-03-31T13:17:11;5.25;;;3.88;;
7171;SDS011;3627;46.544;14.944;2023-03-31T13:19:38;5.18;;;3.33;;
7171;SDS011;3627;46.544;14.944;2023-03-31T13:22:05;3.38;;;2.25;;
7171;SDS011;3627;46.544;14.944;2023-03-31T13:24:32;3.80;;;2.33;;
7171;SDS011;3627;46.544;14.944;2023-03-31T13:27:16;7.93;;;4.15;;
7171;SDS011;3627;46.544;14.944;2023-03-31T13:29:48;5.40;;;2.45;;
7171;SDS011;3627;46.544;14.944;2023-03-31T13:32:19;5.97;;;2.72;;
7171;SDS011;3627;46.544;14.944;2023-03-31T13:34:48;3.83;;;2.47;;
7171;SDS011;3627;46.544;14.944;2023-03-31T13:37:18;2.25;;;1.83;;
7171;SDS011;3627;46.544;14.944;2023-03-31T13:40:10;4.18;;;3.45;;
7171;SDS011;3627;46.544;14.944;2023-03-31T13:42:45;2.08;;;1.90;;
7171;SDS011;3627;46.544;14.944;2023-03-31T13:45:20;3.65;;;2.50;;
7171;SDS011;3627;46.544;14.944;2023-03-31T13:48:02;3.60;;;2.13;;
7171;SDS011;3627;46.544;14.944;2023-03-31T13:50:38;3.47;;;2.28;;
7171;SDS011;3627;46.544;14.944;2023-03-31T13:53:11;5.03;;;2.20;;
7171;SDS011;3627;46.544;14.944;2023-03-31T13:58:43;4.47;;;2.13;;
7171;SDS011;3627;46.544;14.944;2023-03-31T14:01:29;3.50;;;2.30;;
7171;SDS011;3627;46.544;14.944;2023-03-31T14:04:00;3.00;;;2.22;;
7171;SDS011;3627;46.544;14.944;2023-03-31T14:06:31;3.83;;;2.50;;
7171;SDS011;3627;46.544;14.944;2023-03-31T14:08:59;3.22;;;2.20;;
7171;SDS011;3627;46.544;14.944;2023-03-31T14:11:28;2.25;;;1.90;;
7171;SDS011;3627;46.544;14.944;2023-03-31T14:13:57;3.63;;;1.70;;
7171;SDS011;3627;46.544;14.944;2023-03-31T14:16:25;2.78;;;2.13;;
7171;SDS011;3627;46.544;14.944;2023-03-31T14:18:52;2.10;;;1.90;;
7171;SDS011;3627;46.544;14.944;2023-03-31T14:21:22;3.55;;;1.88;;
7171;SDS011;3627;46.544;14.944;2023-03-31T14:23:53;4.15;;;2.03;;
7171;SDS011;3627;46.544;14.944;2023-03-31T14:26:24;2.75;;;1.88;;
7171;SDS011;3627;46.544;14.944;2023-03-31T14:28:58;2.00;;;1.90;;
7171;SDS011;3627;46.544;14.944;2023-03-31T14:31:36;2.70;;;1.80;;
7171;SDS011;3627;46.544;14.944;2023-03-31T14:36:51;2.03;;;1.83;;
7171;SDS011;3627;46.544;14.944;2023-03-31T14:39:22;3.72;;;2.33;;
7171;SDS011;3627;46.544;14.944;2023-03-31T14:41:50;3.00;;;2.45;;
7171;SDS011;3627;46.544;14.944;2023-03-31T14:44:17;2.20;;;2.00;;
7171;SDS011;3627;46.544;14.944;2023-03-31T14:46:45;2.53;;;2.33;;
7171;SDS011;3627;46.544;14.944;2023-03-31T14:49:14;2.47;;;2.15;;
7171;SDS011;3627;46.544;14.944;2023-03-31T14:51:43;3.38;;;2.40;;
7171;SDS011;3627;46.544;14.944;2023-03-31T14:54:13;3.05;;;2.20;;
7171;SDS011;3627;46.544;14.944;2023-03-31T14:56:40;3.40;;;2.10;;
7171;SDS011;3627;46.544;14.944;2023-03-31T14:59:07;2.13;;;1.92;;
7171;SDS011;3627;46.544;14.944;2023-03-31T15:01:34;3.30;;;2.50;;
7171;SDS011;3627;46.544;14.944;2023-03-31T15:04:05;4.25;;;2.33;;
7171;SDS011;3627;46.544;14.944;2023-03-31T15:06:32;4.90;;;2.65;;
7171;SDS011;3627;46.544;14.944;2023-03-31T15:09:00;3.90;;;2.67;;
7171;SDS011;3627;46.544;14.944;2023-03-31T15:11:28;3.38;;;2.45;;
7171;SDS011;3627;46.544;14.944;2023-03-31T15:13:55;2.28;;;1.90;;
7171;SDS011;3627;46.544;14.944;2023-03-31T15:16:29;4.90;;;2.25;;
7171;SDS011;3627;46.544;14.944;2023-03-31T15:18:56;3.05;;;2.05;;
7171;SDS011;3627;46.544;14.944;2023-03-31T15:21:26;5.80;;;2.03;;
7171;SDS011;3627;46.544;14.944;2023-03-31T15:23:53;3.78;;;2.60;;
7171;SDS011;3627;46.544;14.944;2023-03-31T15:26:20;2.88;;;2.15;;
7171;SDS011;3627;46.544;14.944;2023-03-31T15:28:48;6.13;;;3.05;;
7171;SDS011;3627;46.544;14.944;2023-03-31T15:31:17;3.45;;;2.90;;
7171;SDS011;3627;46.544;14.944;2023-03-31T15:33:44;3.67;;;2.30;;
7171;SDS011;3627;46.544;14.944;2023-03-31T15:36:12;2.55;;;2.35;;